createdAt,value
2022-08-23T00:00:35.619Z,26.22
2022-08-23T00:01:39.358Z,26.20
2022-08-23T00:02:43.819Z,26.18
2022-08-23T00:03:46.483Z,26.13
2022-08-23T00:04:55.832Z,26.10
2022-08-23T00:06:14.453Z,26.08
2022-08-23T00:07:16.178Z,26.05
2022-08-23T00:08:17.695Z,26.03
2022-08-23T00:09:19.716Z,25.99
2022-08-23T00:10:21.263Z,25.98
2022-08-23T00:11:26.721Z,25.98
2022-08-23T00:12:28.320Z,25.96
2022-08-23T00:13:47.434Z,25.95
2022-08-23T00:14:53.779Z,25.93
2022-08-23T00:15:55.763Z,25.92
2022-08-23T00:16:57.598Z,25.91
2022-08-23T00:18:00.619Z,25.88
2022-08-23T00:19:03.407Z,25.87
2022-08-23T00:20:09.144Z,25.87
2022-08-23T00:21:11.483Z,25.86
2022-08-23T00:22:13.042Z,25.85
2022-08-23T00:23:16.084Z,25.83
2022-08-23T00:24:17.716Z,25.82
2022-08-23T00:25:19.267Z,25.80
2022-08-23T00:26:20.812Z,25.79
2022-08-23T00:27:22.317Z,25.78
2022-08-23T00:28:23.972Z,25.77
2022-08-23T00:29:27.540Z,25.76
2022-08-23T00:30:29.103Z,25.74
2022-08-23T00:31:31.082Z,25.72
2022-08-23T00:32:33.443Z,25.69
2022-08-23T00:33:35.225Z,25.68
2022-08-23T00:34:36.850Z,25.67
2022-08-23T00:35:38.788Z,25.65
2022-08-23T00:36:40.487Z,25.62
2022-08-23T00:37:42.069Z,25.61
2022-08-23T00:38:47.915Z,25.60
2022-08-23T00:39:49.517Z,25.58
2022-08-23T00:40:51.583Z,25.55
2022-08-23T00:41:53.341Z,25.53
2022-08-23T00:43:18.001Z,25.52
2022-08-23T00:44:42.998Z,25.50
2022-08-23T00:46:06.321Z,25.46
2022-08-23T00:47:26.371Z,25.44
2022-08-23T00:48:27.883Z,25.41
2022-08-23T00:49:29.950Z,25.41
2022-08-23T00:50:35.911Z,25.39
2022-08-23T00:51:46.851Z,25.36
2022-08-23T00:52:57.958Z,25.34
2022-08-23T00:54:00.650Z,25.33
2022-08-23T00:55:02.210Z,25.31
2022-08-23T00:56:04.143Z,25.29
2022-08-23T00:57:07.009Z,25.27
2022-08-23T00:58:08.951Z,25.26
2022-08-23T00:59:12.118Z,25.25
2022-08-23T01:00:14.398Z,25.22
2022-08-23T01:01:16.181Z,25.19
2022-08-23T01:02:19.535Z,25.18
2022-08-23T01:03:22.228Z,25.13
2022-08-23T01:04:24.260Z,25.13
2022-08-23T01:05:26.880Z,25.10
2022-08-23T01:06:32.074Z,25.06
2022-08-23T01:07:41.443Z,25.03
2022-08-23T01:08:49.818Z,25.00
2022-08-23T01:09:51.512Z,24.98
2022-08-23T01:11:08.650Z,24.98
2022-08-23T01:12:16.238Z,24.95
2022-08-23T01:13:27.115Z,24.94
2022-08-23T01:14:41.671Z,24.93
2022-08-23T01:15:47.261Z,24.92
2022-08-23T01:16:48.752Z,24.90
2022-08-23T01:17:53.922Z,24.89
2022-08-23T01:18:55.452Z,24.88
2022-08-23T01:20:01.609Z,24.88
2022-08-23T01:21:23.258Z,24.87
2022-08-23T01:22:34.359Z,24.85
2022-08-23T01:23:39.583Z,24.83
2022-08-23T01:25:05.940Z,24.83
2022-08-23T01:26:04.048Z,24.81
2022-08-23T01:27:05.784Z,24.80
2022-08-23T01:28:07.374Z,24.79
2022-08-23T01:29:08.970Z,24.78
2022-08-23T01:30:11.538Z,24.77
2022-08-23T01:31:13.216Z,24.76
2022-08-23T01:32:14.757Z,24.75
2022-08-23T01:33:16.454Z,24.74
2022-08-23T01:34:18.689Z,24.73
2022-08-23T01:36:27.638Z,24.73
2022-08-23T01:37:29.653Z,24.71
2022-08-23T01:38:32.801Z,24.71
2022-08-23T01:39:35.383Z,24.70
2022-08-23T01:40:38.989Z,24.68
2022-08-23T01:41:41.182Z,24.68
2022-08-23T01:42:43.462Z,24.68
2022-08-23T01:43:47.015Z,24.65
2022-08-23T01:44:50.459Z,24.65
2022-08-23T01:45:52.564Z,24.64
2022-08-23T01:46:57.865Z,24.63
2022-08-23T01:47:59.995Z,24.63
2022-08-23T01:49:06.481Z,24.60
2022-08-23T01:50:09.910Z,24.58
2022-08-23T01:51:11.941Z,24.58
2022-08-23T01:52:15.334Z,24.56
2022-08-23T01:53:16.879Z,24.55
2022-08-23T01:54:23.194Z,24.54
2022-08-23T01:55:24.940Z,24.51
2022-08-23T01:56:28.104Z,24.49
2022-08-23T01:57:42.678Z,24.48
2022-08-23T01:58:47.779Z,24.46
2022-08-23T01:59:49.385Z,24.45
2022-08-23T02:00:50.958Z,24.42
2022-08-23T02:01:53.669Z,24.39
2022-08-23T02:02:56.328Z,24.36
2022-08-23T02:04:04.733Z,24.33
2022-08-23T02:05:07.046Z,24.31
2022-08-23T02:06:08.642Z,24.28
2022-08-23T02:07:10.609Z,24.27
2022-08-23T02:08:41.406Z,24.24
2022-08-23T02:09:43.059Z,24.23
2022-08-23T02:10:44.908Z,24.21
2022-08-23T02:11:46.534Z,24.20
2022-08-23T02:12:48.108Z,24.18
2022-08-23T02:13:51.967Z,24.16
2022-08-23T02:14:53.886Z,24.16
2022-08-23T02:15:59.623Z,24.14
2022-08-23T02:17:04.403Z,24.11
2022-08-23T02:18:10.873Z,24.11
2022-08-23T02:19:16.857Z,24.10
2022-08-23T02:20:19.403Z,24.08
2022-08-23T02:21:20.968Z,24.09
2022-08-23T02:22:22.586Z,24.07
2022-08-23T02:23:24.339Z,24.06
2022-08-23T02:24:26.750Z,24.05
2022-08-23T02:25:28.374Z,24.01
2022-08-23T02:26:31.504Z,24.00
2022-08-23T02:27:33.404Z,23.99
2022-08-23T02:28:35.003Z,23.95
2022-08-23T02:29:39.283Z,23.94
2022-08-23T02:30:44.550Z,23.93
2022-08-23T02:31:46.889Z,23.92
2022-08-23T02:32:48.410Z,23.90
2022-08-23T02:33:49.947Z,23.87
2022-08-23T02:35:04.599Z,23.85
2022-08-23T02:36:08.487Z,23.84
2022-08-23T02:37:11.071Z,23.84
2022-08-23T02:38:12.746Z,23.85
2022-08-23T02:39:14.687Z,23.84
2022-08-23T02:40:16.705Z,23.83
2022-08-23T02:41:18.306Z,23.84
2022-08-23T02:42:20.171Z,23.84
2022-08-23T02:43:21.898Z,23.84
2022-08-23T02:44:24.404Z,23.83
2022-08-23T02:45:26.858Z,23.83
2022-08-23T02:46:28.693Z,23.81
2022-08-23T02:47:31.343Z,23.80
2022-08-23T02:48:43.527Z,23.80
2022-08-23T02:49:46.152Z,23.78
2022-08-23T02:50:47.754Z,23.76
2022-08-23T02:51:49.300Z,23.75
2022-08-23T02:52:51.751Z,23.74
2022-08-23T02:53:53.278Z,23.72
2022-08-23T02:54:58.265Z,23.72
2022-08-23T02:56:00.180Z,23.73
2022-08-23T02:57:01.746Z,23.71
2022-08-23T02:58:05.482Z,23.70
2022-08-23T02:59:07.234Z,23.69
2022-08-23T03:00:10.243Z,23.65
2022-08-23T03:01:22.892Z,23.63
2022-08-23T03:02:26.545Z,23.60
2022-08-23T03:03:28.219Z,23.59
2022-08-23T03:04:29.727Z,23.56
2022-08-23T03:05:31.683Z,23.56
2022-08-23T03:06:34.459Z,23.56
2022-08-23T03:07:36.793Z,23.56
2022-08-23T03:08:38.422Z,23.54
2022-08-23T03:09:43.252Z,23.53
2022-08-23T03:10:45.445Z,23.51
2022-08-23T03:11:47.316Z,23.51
2022-08-23T03:12:53.808Z,23.50
2022-08-23T03:13:58.716Z,23.50
2022-08-23T03:15:00.261Z,23.48
2022-08-23T03:16:01.960Z,23.37
2022-08-23T03:17:04.060Z,23.45
2022-08-23T03:18:05.747Z,23.44
2022-08-23T03:19:07.519Z,23.43
2022-08-23T03:20:09.348Z,23.41
2022-08-23T03:21:11.342Z,23.39
2022-08-23T03:22:13.223Z,23.39
2022-08-23T03:23:14.738Z,23.37
2022-08-23T03:24:16.294Z,23.36
2022-08-23T03:25:18.122Z,23.35
2022-08-23T03:26:44.522Z,23.34
2022-08-23T03:27:46.928Z,23.33
2022-08-23T03:28:48.655Z,23.32
2022-08-23T03:29:50.987Z,23.30
2022-08-23T03:30:52.918Z,23.29
2022-08-23T03:31:54.548Z,23.27
2022-08-23T03:32:56.426Z,23.24
2022-08-23T03:33:58.627Z,23.23
2022-08-23T03:35:00.288Z,23.23
2022-08-23T03:36:02.428Z,23.20
2022-08-23T03:37:04.975Z,23.17
2022-08-23T03:38:06.995Z,23.10
2022-08-23T03:39:11.118Z,23.16
2022-08-23T03:40:12.958Z,23.15
2022-08-23T03:41:14.738Z,23.16
2022-08-23T03:42:16.430Z,23.14
2022-08-23T03:43:21.009Z,23.12
2022-08-23T03:44:22.647Z,23.10
2022-08-23T03:45:25.185Z,23.09
2022-08-23T03:46:29.057Z,23.08
2022-08-23T03:47:35.210Z,23.07
2022-08-23T03:48:37.564Z,23.07
2022-08-23T03:49:39.300Z,23.06
2022-08-23T03:50:40.841Z,23.05
2022-08-23T03:51:42.478Z,23.04
2022-08-23T03:52:44.502Z,23.03
2022-08-23T03:53:47.821Z,23.03
2022-08-23T03:54:49.363Z,23.02
2022-08-23T03:55:51.804Z,23.02
2022-08-23T03:56:59.726Z,23.01
2022-08-23T03:58:03.328Z,23.00
2022-08-23T03:59:06.151Z,23.01
2022-08-23T04:00:08.361Z,22.98
2022-08-23T04:01:15.663Z,22.96
2022-08-23T04:02:17.723Z,22.95
2022-08-23T04:03:19.387Z,22.95
2022-08-23T04:04:35.568Z,22.94
2022-08-23T04:05:57.403Z,22.93
2022-08-23T04:06:59.083Z,22.92
2022-08-23T04:08:06.184Z,22.91
2022-08-23T04:09:07.761Z,22.90
2022-08-23T04:10:09.646Z,22.87
2022-08-23T04:11:13.356Z,22.84
2022-08-23T04:12:24.326Z,22.82
2022-08-23T04:13:28.632Z,22.81
2022-08-23T04:14:30.405Z,22.80
2022-08-23T04:15:31.992Z,22.81
2022-08-23T04:16:37.484Z,22.80
2022-08-23T04:17:40.593Z,22.79
2022-08-23T04:18:42.305Z,22.80
2022-08-23T04:19:43.877Z,22.80
2022-08-23T04:20:46.895Z,22.79
2022-08-23T04:21:49.959Z,22.79
2022-08-23T04:22:52.285Z,22.79
2022-08-23T04:23:54.583Z,22.76
2022-08-23T04:24:56.177Z,22.75
2022-08-23T04:25:58.070Z,22.72
2022-08-23T04:27:00.472Z,22.69
2022-08-23T04:28:02.931Z,22.66
2022-08-23T04:29:04.938Z,22.63
2022-08-23T04:30:07.256Z,22.63
2022-08-23T04:31:10.225Z,22.60
2022-08-23T04:32:14.769Z,22.61
2022-08-23T04:33:31.795Z,22.61
2022-08-23T04:34:34.319Z,22.60
2022-08-23T04:35:35.839Z,22.59
2022-08-23T04:36:39.161Z,22.59
2022-08-23T04:37:41.513Z,22.60
2022-08-23T04:38:43.370Z,22.60
2022-08-23T04:40:05.769Z,22.60
2022-08-23T04:41:32.640Z,22.56
2022-08-23T04:42:34.570Z,22.50
2022-08-23T04:43:36.234Z,22.50
2022-08-23T04:44:37.811Z,22.49
2022-08-23T04:45:40.614Z,22.48
2022-08-23T04:46:48.652Z,22.49
2022-08-23T04:47:51.455Z,22.50
2022-08-23T04:48:54.086Z,22.50
2022-08-23T04:49:55.695Z,22.50
2022-08-23T04:50:57.347Z,22.49
2022-08-23T04:51:58.896Z,22.50
2022-08-23T04:53:00.961Z,22.50
2022-08-23T04:54:04.098Z,22.49
2022-08-23T04:55:36.490Z,22.48
2022-08-23T04:56:42.127Z,22.49
2022-08-23T04:57:45.783Z,22.45
2022-08-23T04:58:51.838Z,22.45
2022-08-23T04:59:53.739Z,22.44
2022-08-23T05:00:59.001Z,22.41
2022-08-23T05:02:02.282Z,22.40
2022-08-23T05:03:03.968Z,22.40
2022-08-23T05:04:05.527Z,22.39
2022-08-23T05:05:09.362Z,22.41
2022-08-23T05:06:16.829Z,22.42
2022-08-23T05:07:18.530Z,22.41
2022-08-23T05:08:20.378Z,22.41
2022-08-23T05:09:24.095Z,22.42
2022-08-23T05:10:26.030Z,22.40
2022-08-23T05:11:29.227Z,22.40
2022-08-23T05:12:31.151Z,22.41
2022-08-23T05:13:34.783Z,22.41
2022-08-23T05:14:38.120Z,22.41
2022-08-23T05:15:40.673Z,22.42
2022-08-23T05:16:42.278Z,22.41
2022-08-23T05:17:44.963Z,22.43
2022-08-23T05:18:46.651Z,22.43
2022-08-23T05:19:48.388Z,22.44
2022-08-23T05:20:50.376Z,22.46
2022-08-23T05:21:56.374Z,22.46
2022-08-23T05:23:03.673Z,22.43
2022-08-23T05:24:07.614Z,22.46
2022-08-23T05:25:15.407Z,22.46
2022-08-23T05:26:17.327Z,22.47
2022-08-23T05:27:19.444Z,22.48
2022-08-23T05:28:21.946Z,22.48
2022-08-23T05:29:23.551Z,22.49
2022-08-23T05:30:26.188Z,22.48
2022-08-23T05:31:29.435Z,22.50
2022-08-23T05:32:36.843Z,22.51
2022-08-23T05:33:39.483Z,22.52
2022-08-23T05:34:41.180Z,22.54
2022-08-23T05:35:45.276Z,22.54
2022-08-23T05:36:48.143Z,22.55
2022-08-23T05:37:59.753Z,22.57
2022-08-23T05:39:01.411Z,22.58
2022-08-23T05:40:06.746Z,22.58
2022-08-23T05:41:15.975Z,22.60
2022-08-23T05:42:22.586Z,22.61
2022-08-23T05:43:28.935Z,22.62
2022-08-23T05:44:31.941Z,22.63
2022-08-23T05:45:39.138Z,22.65
2022-08-23T05:46:41.796Z,22.66
2022-08-23T05:48:07.609Z,22.67
2022-08-23T05:49:21.373Z,22.70
2022-08-23T05:50:23.870Z,22.72
2022-08-23T05:51:27.909Z,22.72
2022-08-23T05:52:29.455Z,22.75
2022-08-23T05:53:31.368Z,22.78
2022-08-23T05:54:33.194Z,22.80
2022-08-23T05:55:54.977Z,22.83
2022-08-23T05:56:59.353Z,22.86
2022-08-23T05:58:01.084Z,22.88
2022-08-23T05:59:05.003Z,22.90
2022-08-23T06:00:08.587Z,22.92
2022-08-23T06:01:20.407Z,22.96
2022-08-23T06:02:22.179Z,23.00
2022-08-23T06:03:23.747Z,23.02
2022-08-23T06:04:26.842Z,23.06
2022-08-23T06:05:29.361Z,23.11
2022-08-23T06:06:36.914Z,23.14
2022-08-23T06:07:39.519Z,23.16
2022-08-23T06:08:41.315Z,23.18
2022-08-23T06:09:43.038Z,23.20
2022-08-23T06:10:45.588Z,23.23
2022-08-23T06:11:58.753Z,23.26
2022-08-23T06:13:01.682Z,23.26
2022-08-23T06:14:04.343Z,23.30
2022-08-23T06:15:06.179Z,23.31
2022-08-23T06:16:14.372Z,23.31
2022-08-23T06:17:18.086Z,23.35
2022-08-23T06:18:20.939Z,23.37
2022-08-23T06:19:23.866Z,23.38
2022-08-23T06:20:43.974Z,23.39
2022-08-23T06:21:52.275Z,23.40
2022-08-23T06:22:58.998Z,23.42
2022-08-23T06:24:00.874Z,23.43
2022-08-23T06:25:04.353Z,23.44
2022-08-23T06:26:26.048Z,23.44
2022-08-23T06:27:28.612Z,23.44
2022-08-23T06:28:30.451Z,23.47
2022-08-23T06:29:32.260Z,23.47
2022-08-23T06:30:56.191Z,23.50
2022-08-23T06:32:09.624Z,23.52
2022-08-23T06:33:18.409Z,23.56
2022-08-23T06:34:52.287Z,23.60
2022-08-23T06:36:32.630Z,23.62
2022-08-23T06:37:47.837Z,23.63
2022-08-23T06:39:09.111Z,23.65
2022-08-23T06:40:29.284Z,23.67
2022-08-23T06:41:49.382Z,23.68
2022-08-23T06:43:01.603Z,23.73
2022-08-23T06:44:21.737Z,23.77
2022-08-23T06:45:34.832Z,23.80
2022-08-23T06:46:38.459Z,23.83
2022-08-23T06:47:40.272Z,23.85
2022-08-23T06:48:42.446Z,23.86
2022-08-23T06:49:51.076Z,23.90
2022-08-23T06:51:27.327Z,23.95
2022-08-23T06:52:49.701Z,23.96
2022-08-23T06:54:06.567Z,24.00
2022-08-23T06:55:23.280Z,24.03
2022-08-23T06:56:35.465Z,24.03
2022-08-23T06:57:43.688Z,24.05
2022-08-23T06:59:13.719Z,24.11
2022-08-23T07:00:34.275Z,24.16
2022-08-23T07:01:52.677Z,24.22
2022-08-23T07:03:14.179Z,24.26
2022-08-23T07:04:35.734Z,24.29
2022-08-23T07:06:03.674Z,24.33
2022-08-23T07:07:11.393Z,24.33
2022-08-23T07:08:13.524Z,24.33
2022-08-23T07:09:15.535Z,24.34
2022-08-23T07:10:17.501Z,24.36
2022-08-23T07:11:19.628Z,24.38
2022-08-23T07:12:22.096Z,24.36
2022-08-23T07:13:23.763Z,24.40
2022-08-23T07:14:25.401Z,24.38
2022-08-23T07:15:27.016Z,24.42
2022-08-23T07:16:34.949Z,24.46
2022-08-23T07:17:36.578Z,24.49
2022-08-23T07:18:38.546Z,24.52
2022-08-23T07:19:41.415Z,24.56
2022-08-23T07:20:42.928Z,24.61
2022-08-23T07:21:45.895Z,24.67
2022-08-23T07:22:49.323Z,24.71
2022-08-23T07:23:51.560Z,24.70
2022-08-23T07:24:53.569Z,24.67
2022-08-23T07:25:57.558Z,24.69
2022-08-23T07:27:06.184Z,24.72
2022-08-23T07:28:11.702Z,24.76
2022-08-23T07:29:14.340Z,24.79
2022-08-23T07:30:15.903Z,24.83
2022-08-23T07:31:22.783Z,24.85
2022-08-23T07:32:24.347Z,24.89
2022-08-23T07:33:29.226Z,24.95
2022-08-23T07:34:42.176Z,24.95
2022-08-23T07:35:46.626Z,24.96
2022-08-23T07:36:48.347Z,24.99
2022-08-23T07:37:49.852Z,25.05
2022-08-23T07:38:51.902Z,25.10
2022-08-23T07:39:56.311Z,25.13
2022-08-23T07:41:00.478Z,25.16
2022-08-23T07:42:02.279Z,25.19
2022-08-23T07:43:24.083Z,25.22
2022-08-23T07:44:27.218Z,25.23
2022-08-23T07:45:29.092Z,25.26
2022-08-23T07:46:34.483Z,25.29
2022-08-23T07:47:37.003Z,25.32
2022-08-23T07:48:53.601Z,25.35
2022-08-23T07:50:02.687Z,25.39
2022-08-23T07:51:07.931Z,25.35
2022-08-23T07:52:12.078Z,25.36
2022-08-23T07:53:14.014Z,25.40
2022-08-23T07:54:18.170Z,25.47
2022-08-23T07:55:26.598Z,25.50
2022-08-23T07:56:29.086Z,25.53
2022-08-23T07:57:39.236Z,25.57
2022-08-23T07:59:06.918Z,25.62
2022-08-23T08:00:22.557Z,25.62
2022-08-23T08:01:35.272Z,25.50
2022-08-23T08:02:36.932Z,25.65
2022-08-23T08:03:39.548Z,25.70
2022-08-23T08:04:46.911Z,25.79
2022-08-23T08:05:48.809Z,25.86
2022-08-23T08:07:10.498Z,25.92
2022-08-23T08:08:16.787Z,25.92
2022-08-23T08:09:20.233Z,25.93
2022-08-23T08:10:22.327Z,25.95
2022-08-23T08:11:25.475Z,25.94
2022-08-23T08:12:28.720Z,26.01
2022-08-23T08:13:35.579Z,26.09
2022-08-23T08:14:37.421Z,26.15
2022-08-23T08:15:40.379Z,26.20
2022-08-23T08:16:45.668Z,26.23
2022-08-23T08:17:53.337Z,26.26
2022-08-23T08:18:55.283Z,26.31
2022-08-23T08:20:15.447Z,26.38
2022-08-23T08:21:35.626Z,26.46
2022-08-23T08:22:48.533Z,26.54
2022-08-23T08:23:58.677Z,26.64
2022-08-23T08:25:15.671Z,26.72
2022-08-23T08:26:17.511Z,26.72
2022-08-23T08:27:27.125Z,26.71
2022-08-23T08:28:29.461Z,26.74
2022-08-23T08:29:31.394Z,26.79
2022-08-23T08:30:32.921Z,26.75
2022-08-23T08:31:38.340Z,26.77
2022-08-23T08:32:46.961Z,26.81
2022-08-23T08:33:48.960Z,26.83
2022-08-23T08:34:50.842Z,26.88
2022-08-23T08:35:57.870Z,26.95
2022-08-23T08:37:02.770Z,27.04
2022-08-23T08:38:05.610Z,27.04
2022-08-23T08:39:08.167Z,27.11
2022-08-23T08:40:12.382Z,27.17
2022-08-23T08:41:16.449Z,27.21
2022-08-23T08:42:18.151Z,27.18
2022-08-23T08:43:27.300Z,27.24
2022-08-23T08:44:41.014Z,27.32
2022-08-23T08:45:58.862Z,27.37
2022-08-23T08:47:03.419Z,27.44
2022-08-23T08:48:13.499Z,27.48
2022-08-23T08:49:31.970Z,27.46
2022-08-23T08:50:36.731Z,27.53
2022-08-23T08:51:39.116Z,27.61
2022-08-23T08:52:45.251Z,27.69
2022-08-23T08:53:55.454Z,27.79
2022-08-23T08:55:26.736Z,27.89
2022-08-23T08:56:32.691Z,27.96
2022-08-23T08:58:04.494Z,28.01
2022-08-23T08:59:07.178Z,28.07
2022-08-23T09:00:14.616Z,28.09
2022-08-23T09:01:19.102Z,28.05
2022-08-23T09:02:32.850Z,28.18
2022-08-23T09:03:37.992Z,28.28
2022-08-23T09:04:45.635Z,28.29
2022-08-23T09:06:07.493Z,28.33
2022-08-23T09:07:27.939Z,28.37
2022-08-23T09:08:52.126Z,28.36
2022-08-23T09:09:56.697Z,28.39
2022-08-23T09:11:06.558Z,28.47
2022-08-23T09:12:25.542Z,28.51
2022-08-23T09:13:27.597Z,28.56
2022-08-23T09:14:38.550Z,28.61
2022-08-23T09:15:41.027Z,28.58
2022-08-23T09:16:55.303Z,28.60
2022-08-23T09:17:58.590Z,28.67
2022-08-23T09:19:01.184Z,28.68
2022-08-23T09:20:04.152Z,28.71
2022-08-23T09:21:06.818Z,28.79
2022-08-23T09:22:13.370Z,28.88
2022-08-23T09:23:19.849Z,28.98
2022-08-23T09:24:24.336Z,29.08
2022-08-23T09:25:33.792Z,29.21
2022-08-23T09:26:41.224Z,29.24
2022-08-23T09:27:43.603Z,29.20
2022-08-23T09:28:45.877Z,29.21
2022-08-23T09:29:57.609Z,29.20
2022-08-23T09:30:59.608Z,29.21
2022-08-23T09:32:02.659Z,29.31
2022-08-23T09:33:20.559Z,29.34
2022-08-23T09:34:23.316Z,29.33
2022-08-23T09:35:37.770Z,29.36
2022-08-23T09:36:41.524Z,29.43
2022-08-23T09:37:52.105Z,29.45
2022-08-23T09:39:17.028Z,29.50
2022-08-23T09:40:20.391Z,29.53
2022-08-23T09:41:25.750Z,29.57
2022-08-23T09:42:29.734Z,29.61
2022-08-23T09:43:31.618Z,29.66
2022-08-23T09:44:40.411Z,29.71
2022-08-23T09:45:47.334Z,29.76
2022-08-23T09:46:48.859Z,29.76
2022-08-23T09:47:54.264Z,29.82
2022-08-23T09:48:59.033Z,29.84
2022-08-23T09:50:26.187Z,29.86
2022-08-23T09:51:37.708Z,29.90
2022-08-23T09:52:43.129Z,29.96
2022-08-23T09:53:46.073Z,29.98
2022-08-23T09:54:57.452Z,30.03
2022-08-23T09:55:59.178Z,30.04
2022-08-23T09:57:05.117Z,30.09
2022-08-23T09:58:07.569Z,30.13
2022-08-23T09:59:27.560Z,30.15
2022-08-23T10:00:36.700Z,30.19
2022-08-23T10:01:39.516Z,30.27
2022-08-23T10:02:47.612Z,30.29
2022-08-23T10:04:08.627Z,30.36
2022-08-23T10:05:20.006Z,30.37
2022-08-23T10:06:31.036Z,30.37
2022-08-23T10:07:35.375Z,30.38
2022-08-23T10:08:42.999Z,30.38
2022-08-23T10:09:45.677Z,30.41
2022-08-23T10:10:50.809Z,30.51
2022-08-23T10:11:57.403Z,30.62
2022-08-23T10:12:59.153Z,30.67
2022-08-23T10:14:01.844Z,30.65
2022-08-23T10:15:04.233Z,30.66
2022-08-23T10:16:29.202Z,30.70
2022-08-23T10:17:41.664Z,30.89
2022-08-23T10:18:55.329Z,31.00
2022-08-23T10:20:05.963Z,31.09
2022-08-23T10:21:07.629Z,31.18
2022-08-23T10:22:28.498Z,31.26
2022-08-23T10:23:48.251Z,31.43
2022-08-23T10:24:53.005Z,31.51
2022-08-23T10:25:55.355Z,31.48
2022-08-23T10:27:34.038Z,31.52
2022-08-23T10:28:54.477Z,31.59
2022-08-23T10:30:01.282Z,31.62
2022-08-23T10:31:11.589Z,31.67
2022-08-23T10:32:33.076Z,31.87
2022-08-23T10:33:38.951Z,31.91
2022-08-23T10:34:50.745Z,31.93
2022-08-23T10:35:58.628Z,31.92
2022-08-23T10:37:12.991Z,31.98
2022-08-23T10:38:17.605Z,32.05
2022-08-23T10:39:24.705Z,32.04
2022-08-23T10:40:30.521Z,31.97
2022-08-23T10:41:38.784Z,32.04
2022-08-23T10:42:43.473Z,32.17
2022-08-23T10:43:53.080Z,32.22
2022-08-23T10:44:58.833Z,32.27
2022-08-23T10:46:00.872Z,32.16
2022-08-23T10:47:18.146Z,32.17
2022-08-23T10:48:28.230Z,32.17
2022-08-23T10:49:30.341Z,32.18
2022-08-23T10:50:55.482Z,32.28
2022-08-23T10:51:59.259Z,32.52
2022-08-23T10:53:02.551Z,32.59
2022-08-23T10:54:07.963Z,32.65
2022-08-23T10:55:24.447Z,32.74
2022-08-23T10:56:26.865Z,32.74
2022-08-23T10:57:33.394Z,32.87
2022-08-23T10:58:47.381Z,32.94
2022-08-23T10:59:49.485Z,33.01
2022-08-23T11:00:52.278Z,33.13
2022-08-23T11:01:59.042Z,33.19
2022-08-23T11:03:01.637Z,33.24
2022-08-23T11:04:15.035Z,33.21
2022-08-23T11:05:38.713Z,33.27
2022-08-23T11:06:48.274Z,33.32
2022-08-23T11:07:56.953Z,33.44
2022-08-23T11:09:02.528Z,33.54
2022-08-23T11:10:04.010Z,33.56
2022-08-23T11:11:06.976Z,33.63
2022-08-23T11:12:19.724Z,33.70
2022-08-23T11:13:22.768Z,33.73
2022-08-23T11:14:36.602Z,33.81
2022-08-23T11:15:41.382Z,33.97
2022-08-23T11:16:47.154Z,34.02
2022-08-23T11:17:57.845Z,34.05
2022-08-23T11:19:00.838Z,34.09
2022-08-23T11:20:10.616Z,34.15
2022-08-23T11:21:18.936Z,34.13
2022-08-23T11:22:30.167Z,34.08
2022-08-23T11:23:36.106Z,34.17
2022-08-23T11:24:48.986Z,34.16
2022-08-23T11:25:50.635Z,34.06
2022-08-23T11:26:52.504Z,34.00
2022-08-23T11:28:12.399Z,34.00
2022-08-23T11:29:23.385Z,33.86
2022-08-23T11:30:35.534Z,33.83
2022-08-23T11:31:41.110Z,33.82
2022-08-23T11:32:43.086Z,33.81
2022-08-23T11:33:46.839Z,33.77
2022-08-23T11:34:49.823Z,33.74
2022-08-23T11:36:09.887Z,33.73
2022-08-23T11:37:18.854Z,33.77
2022-08-23T11:38:40.328Z,33.75
2022-08-23T11:40:00.057Z,33.64
2022-08-23T11:41:19.707Z,33.53
2022-08-23T11:42:21.547Z,33.48
2022-08-23T11:43:31.627Z,33.41
2022-08-23T11:44:40.490Z,33.35
2022-08-23T11:45:46.274Z,33.36
2022-08-23T11:46:49.248Z,33.41
2022-08-23T11:48:03.390Z,33.48
2022-08-23T11:49:23.596Z,33.45
2022-08-23T11:50:26.193Z,33.50
2022-08-23T11:51:37.279Z,33.48
2022-08-23T11:52:49.838Z,33.49
2022-08-23T11:53:51.312Z,33.53
2022-08-23T11:55:05.220Z,33.53
2022-08-23T11:56:09.655Z,33.50
2022-08-23T11:57:11.151Z,33.47
2022-08-23T11:58:18.988Z,33.47
2022-08-23T11:59:34.885Z,33.51
2022-08-23T12:00:57.539Z,33.56
2022-08-23T12:01:59.396Z,33.63
2022-08-23T12:03:05.163Z,33.64
2022-08-23T12:04:12.302Z,33.68
2022-08-23T12:05:22.796Z,33.74
2022-08-23T12:06:27.337Z,33.75
2022-08-23T12:07:42.800Z,33.79
2022-08-23T12:08:44.303Z,33.81
2022-08-23T12:09:49.882Z,33.82
2022-08-23T12:10:51.373Z,33.83
2022-08-23T12:11:52.863Z,33.80
2022-08-23T12:13:14.330Z,33.83
2022-08-23T12:14:31.152Z,33.82
2022-08-23T12:15:56.417Z,33.83
2022-08-23T12:17:03.210Z,33.75
2022-08-23T12:18:07.218Z,33.77
2022-08-23T12:19:10.913Z,33.78
2022-08-23T12:20:20.475Z,33.74
2022-08-23T12:21:23.101Z,33.77
2022-08-23T12:22:25.757Z,33.81
2022-08-23T12:23:27.419Z,33.83
2022-08-23T12:24:30.776Z,33.84
2022-08-23T12:25:32.367Z,33.84
2022-08-23T12:26:49.583Z,33.85
2022-08-23T12:28:11.748Z,33.89
2022-08-23T12:29:23.247Z,33.93
2022-08-23T12:30:25.808Z,33.85
2022-08-23T12:31:35.514Z,33.84
2022-08-23T12:32:40.091Z,33.84
2022-08-23T12:33:47.846Z,33.86
2022-08-23T12:34:51.937Z,33.90
2022-08-23T12:36:03.818Z,33.94
2022-08-23T12:37:15.680Z,33.94
2022-08-23T12:38:17.141Z,33.99
2022-08-23T12:39:32.070Z,34.00
2022-08-23T12:40:36.299Z,33.99
2022-08-23T12:41:55.755Z,34.01
2022-08-23T12:43:23.609Z,33.90
2022-08-23T12:44:26.460Z,33.89
2022-08-23T12:45:28.483Z,33.92
2022-08-23T12:46:35.519Z,33.95
2022-08-23T12:47:40.971Z,33.94
2022-08-23T12:48:47.259Z,33.92
2022-08-23T12:49:55.959Z,33.93
2022-08-23T12:50:57.503Z,33.90
2022-08-23T12:52:00.100Z,33.94
2022-08-23T12:53:03.403Z,33.98
2022-08-23T12:54:14.889Z,34.03
2022-08-23T12:55:18.480Z,34.03
2022-08-23T12:56:28.086Z,34.03
2022-08-23T12:57:35.214Z,34.04
2022-08-23T12:58:37.903Z,34.08
2022-08-23T12:59:42.491Z,34.12
2022-08-23T13:00:54.334Z,34.19
2022-08-23T13:01:55.990Z,34.21
2022-08-23T13:03:04.690Z,34.24
2022-08-23T13:04:08.483Z,34.29
2022-08-23T13:05:13.645Z,34.29
2022-08-23T13:06:16.999Z,34.27
2022-08-23T13:07:21.352Z,34.26
2022-08-23T13:08:27.309Z,34.26
2022-08-23T13:09:37.130Z,34.22
2022-08-23T13:10:39.703Z,34.18
2022-08-23T13:11:41.433Z,34.19
2022-08-23T13:12:42.938Z,34.21
2022-08-23T13:13:44.492Z,34.23
2022-08-23T13:14:47.374Z,34.28
2022-08-23T13:15:50.636Z,34.30
2022-08-23T13:16:52.289Z,34.31
2022-08-23T13:17:59.076Z,34.34
2022-08-23T13:19:20.627Z,34.38
2022-08-23T13:20:22.887Z,34.45
2022-08-23T13:21:24.359Z,34.53
2022-08-23T13:22:25.971Z,34.60
2022-08-23T13:23:27.718Z,34.65
2022-08-23T13:24:38.714Z,34.69
2022-08-23T13:25:40.992Z,34.75
2022-08-23T13:26:42.699Z,34.74
2022-08-23T13:27:44.177Z,34.79
2022-08-23T13:29:00.093Z,34.83
2022-08-23T13:30:01.643Z,34.87
2022-08-23T13:31:06.127Z,34.88
2022-08-23T13:32:07.665Z,34.89
2022-08-23T13:33:12.915Z,34.92
2022-08-23T13:34:32.288Z,34.91
2022-08-23T13:35:33.897Z,34.90
2022-08-23T13:36:36.556Z,34.89
2022-08-23T13:37:38.098Z,34.90
2022-08-23T13:38:39.838Z,34.88
2022-08-23T13:39:44.346Z,34.88
2022-08-23T13:40:54.944Z,34.82
2022-08-23T13:41:56.459Z,34.72
2022-08-23T13:43:01.534Z,34.66
2022-08-23T13:44:06.669Z,34.65
2022-08-23T13:45:14.227Z,34.64
2022-08-23T13:46:22.344Z,34.67
2022-08-23T13:47:24.992Z,34.65
2022-08-23T13:48:30.645Z,34.63
2022-08-23T13:49:32.190Z,34.62
2022-08-23T13:50:34.532Z,34.61
2022-08-23T13:51:38.534Z,34.60
2022-08-23T13:53:03.167Z,34.44
2022-08-23T13:54:06.132Z,34.59
2022-08-23T13:55:07.743Z,34.61
2022-08-23T13:56:09.314Z,34.63
2022-08-23T13:57:11.890Z,34.67
2022-08-23T13:58:14.334Z,34.63
2022-08-23T13:59:35.883Z,34.58
2022-08-23T14:00:37.410Z,34.64
2022-08-23T14:01:38.952Z,34.70
2022-08-23T14:02:40.639Z,34.73
2022-08-23T14:03:42.221Z,34.75
2022-08-23T14:04:43.912Z,34.80
2022-08-23T14:05:45.428Z,34.79
2022-08-23T14:06:48.690Z,34.83
2022-08-23T14:07:52.900Z,34.83
2022-08-23T14:08:54.429Z,34.88
2022-08-23T14:09:57.298Z,34.92
2022-08-23T14:10:58.792Z,34.96
2022-08-23T14:12:03.053Z,34.96
2022-08-23T14:13:06.798Z,34.95
2022-08-23T14:14:08.327Z,34.95
2022-08-23T14:15:10.018Z,34.96
2022-08-23T14:17:34.970Z,34.95